Terminal Aerodrome Forecast
Issued by NWS

Current Version | Previous Version | Text Only | Print | Product List | Glossary Off
Versions: 1 2 3 4 5 6 7 8 9 10 11 12 13 14 15 16 17

000
FTUS41 KPBZ 140200 AAB
TAFMGW
TAF AMD
KMGW 140213Z 1402/1424 22003KT P6SM VCSH BKN035
     FM140600 22003KT 2SM BR VCSH SCT005 BKN010
     FM141400 22005KT 5SM HZ BKN020
     FM141600 21005KT P6SM VCSH BKN035 PROB30 1420/1424 5SM -TSRA
      BKN035CB=

USA.gov is the U.S. government's official web portal to all federal, state and local government web resources and services.